Time;durP1;ratioP1;P1;durP2;ratioP2;P2;SDS_P1;SDS_P2;PMS_P1;PMS_P2;Temp;Humidity;BMP_temperature;BMP_pressure;BME280_temperature;BME280_humidity;BME280_pressure;Samples;Min_cycle;Max_cycle;Signal;HPM_P1;HPM_P2
2021/10/14 00:00:44;;;;;;;;;;;;;;;16.36;71.03;102220.31;5015329;28;1890;-68
2021/10/14 00:03:09;;;;;;;;;;;;;;;16.36;71.19;102225.69;5014122;28;1794;-68
2021/10/14 00:05:34;;;;;;;;;;;;;;;16.35;71.42;102229.34;4994256;28;1937;-67
2021/10/14 00:07:59;;;;;;;;;;;;;;;16.35;70.99;102223.97;4995840;28;890;-68
2021/10/14 00:10:24;;;;;;;;;;;;;;;16.34;71.27;102231.19;4995834;28;1654;-68
2021/10/14 00:12:50;;;;;;;;;;;;;;;16.33;71.38;102230.31;4995788;28;911;-68
2021/10/14 00:15:15;;;;;;;;;;;;;;;16.32;71.34;102236.66;4995585;28;1848;-68
2021/10/14 00:17:40;;;;;;;;;;;;;;;16.32;71.19;102236.66;4995335;28;1062;-71
2021/10/14 00:20:05;;;;;;;;;;;;;;;16.33;71.12;102233.00;4995699;28;1596;-70
2021/10/14 00:22:30;;;;;;;;;;;;;;;16.33;71.14;102226.75;4995298;28;1898;-70
2021/10/14 00:24:55;;;;;;;;;;;;;;;16.32;71.69;102214.28;5013026;28;1937;-68
2021/10/14 00:27:20;;;;;;;;;;;;;;;16.32;71.35;102219.66;5015018;28;955;-69
2021/10/14 00:29:45;;;;;;;;;;;;;;;16.32;71.65;102215.13;5015103;28;1700;-68
2021/10/14 00:32:10;;;;;;;;;;;;;;;16.31;71.54;102216.09;5015109;28;1001;-68
2021/10/14 00:34:35;;;;;;;;;;;;;;;16.31;71.44;102213.41;5000233;28;1815;-69
2021/10/14 00:37:00;;;;;;;;;;;;;;;16.30;71.51;102217.06;4995649;28;998;-68
2021/10/14 00:39:25;;;;;;;;;;;;;;;16.31;71.56;102220.63;4995696;28;1756;-71
2021/10/14 00:41:50;;;;;;;;;;;;;;;16.30;71.71;102211.69;4997887;28;1914;-71
2021/10/14 00:44:16;;;;;;;;;;;;;;;16.30;71.41;102214.38;5013609;28;1812;-70
2021/10/14 00:46:41;;;;;;;;;;;;;;;16.30;71.29;102214.38;5018731;28;843;-70
2021/10/14 00:49:06;;;;;;;;;;;;;;;16.30;71.54;102206.28;5018639;28;1637;-70
2021/10/14 00:51:31;;;;;;;;;;;;;;;16.30;71.46;102205.47;5018871;28;910;-70
2021/10/14 00:53:56;;;;;;;;;;;;;;;16.29;71.65;102203.75;5006606;28;1747;-69
2021/10/14 00:56:21;;;;;;;;;;;;;;;16.29;71.73;102209.97;4998709;28;965;-68
2021/10/14 00:58:46;;;;;;;;;;;;;;;16.28;71.62;102200.19;4998791;28;1590;-68
2021/10/14 01:01:11;;;;;;;;;;;;;;;16.29;71.45;102198.38;4998845;28;1894;-68
2021/10/14 01:03:36;;;;;;;;;;;;;;;16.28;71.78;102196.63;5010180;28;1884;-69
2021/10/14 01:06:01;;;;;;;;;;;;;;;16.27;71.85;102201.16;5017039;28;1243;-69
2021/10/14 01:08:26;;;;;;;;;;;;;;;16.28;71.47;102197.50;5018709;28;1480;-69
2021/10/14 01:10:51;;;;;;;;;;;;;;;16.27;71.61;102192.22;5018323;28;886;-67
2021/10/14 01:13:17;;;;;;;;;;;;;;;16.27;71.71;102195.78;5017508;28;1878;-67
2021/10/14 01:15:42;;;;;;;;;;;;;;;16.27;71.82;102190.38;5018168;28;1060;-67
2021/10/14 01:18:07;;;;;;;;;;;;;;;16.27;71.59;102194.91;5018236;28;1598;-67
2021/10/14 01:20:32;;;;;;;;;;;;;;;16.27;71.82;102194.91;5018252;28;1894;-67
2021/10/14 01:22:57;;;;;;;;;;;;;;;16.26;71.72;102185.97;5009524;28;1778;-68
2021/10/14 01:25:22;;;;;;;;;;;;;;;16.26;71.75;102182.41;4998620;28;1321;-68
2021/10/14 01:27:48;;;;;;;;;;;;;;;16.25;71.84;102180.69;4998324;28;921;-68
2021/10/14 01:30:13;;;;;;;;;;;;;;;16.24;71.85;102174.44;4998380;28;1015;-68
2021/10/14 01:32:38;;;;;;;;;;;;;;;16.24;71.72;102171.75;4998612;28;1770;-68
2021/10/14 01:35:03;;;;;;;;;;;;;;;16.24;71.86;102166.38;4998455;28;1840;-68
2021/10/14 01:37:28;;;;;;;;;;;;;;;16.24;71.75;102165.53;4998143;28;819;-68
2021/10/14 01:39:53;;;;;;;;;;;;;;;16.24;71.65;102162.84;4998334;28;950;-68
2021/10/14 01:42:18;;;;;;;;;;;;;;;16.24;72.07;102168.22;5003315;28;1970;-68
2021/10/14 01:44:43;;;;;;;;;;;;;;;16.23;71.57;102158.41;5017871;28;1804;-68
2021/10/14 01:47:09;;;;;;;;;;;;;;;16.23;71.90;102161.09;5016539;28;1880;-68
2021/10/14 01:49:34;;;;;;;;;;;;;;;16.24;72.10;102157.44;4997785;28;962;-68
2021/10/14 01:51:59;;;;;;;;;;;;;;;16.23;72.48;102163.78;5000215;28;1754;-68
2021/10/14 01:54:24;;;;;;;;;;;;;;;16.22;72.05;102164.75;5017128;28;1001;-68
2021/10/14 01:56:49;;;;;;;;;;;;;;;16.22;72.08;102160.25;5017215;28;943;-68
2021/10/14 01:59:14;;;;;;;;;;;;;;;16.22;71.73;102162.06;5017181;28;1048;-68
2021/10/14 02:01:39;;;;;;;;;;;;;;;16.22;72.19;102156.69;5017127;28;1890;-68
2021/10/14 02:04:04;;;;;;;;;;;;;;;16.21;72.24;102163.91;5016977;28;997;-68
2021/10/14 02:06:29;;;;;;;;;;;;;;;16.21;72.02;102158.50;5017239;28;1013;-68
2021/10/14 02:08:54;;;;;;;;;;;;;;;16.21;71.98;102160.34;5017138;28;1613;-68
2021/10/14 02:11:19;;;;;;;;;;;;;;;16.20;72.00;102156.78;5016603;28;1692;-68
2021/10/14 02:13:44;;;;;;;;;;;;;;;16.20;72.04;102159.47;4997375;28;1661;-68
2021/10/14 02:16:09;;;;;;;;;;;;;;;16.20;71.94;102155.94;4997732;28;942;-68
2021/10/14 02:18:34;;;;;;;;;;;;;;;16.20;72.26;102151.41;4997627;28;1516;-68
2021/10/14 02:21:00;;;;;;;;;;;;;;;16.20;72.42;102145.16;4997299;28;1898;-68
2021/10/14 02:23:25;;;;;;;;;;;;;;;16.19;72.25;102148.81;5011750;28;1741;-69
2021/10/14 02:25:50;;;;;;;;;;;;;;;16.20;72.33;102143.34;5006766;28;1622;-69
2021/10/14 02:28:15;;;;;;;;;;;;;;;16.19;72.08;102138.94;5020347;28;1717;-66
2021/10/14 02:30:40;;;;;;;;;;;;;;;16.20;72.32;102135.28;5013998;28;1642;-68
2021/10/14 02:33:05;;;;;;;;;;;;;;;16.19;71.94;102141.63;4999874;28;1791;-65
2021/10/14 02:35:30;;;;;;;;;;;;;;;16.20;72.47;102135.28;5003038;28;1610;-68
2021/10/14 02:37:55;;;;;;;;;;;;;;;16.20;72.18;102134.41;5006284;28;1749;-68
2021/10/14 02:40:20;;;;;;;;;;;;;;;16.19;72.44;102128.16;5006864;28;1652;-68
2021/10/14 02:42:45;;;;;;;;;;;;;;;16.19;72.56;102138.06;5003837;28;1968;-68
2021/10/14 02:45:10;;;;;;;;;;;;;;;16.18;72.30;102131.81;5015364;28;1600;-69
2021/10/14 02:47:35;;;;;;;;;;;;;;;16.19;72.30;102138.94;5015646;28;2542;-68
2021/10/14 02:50:01;;;;;;;;;;;;;;;16.18;72.13;102137.19;5014993;28;1595;-71
2021/10/14 02:52:26;;;;;;;;;;;;;;;16.19;72.48;102133.53;5007276;28;1725;-68
2021/10/14 02:54:51;;;;;;;;;;;;;;;16.18;72.38;102131.81;5005481;28;1717;-68
2021/10/14 02:57:16;;;;;;;;;;;;;;;16.18;72.50;102133.66;5005245;28;1622;-68
2021/10/14 02:59:41;;;;;;;;;;;;;;;16.17;72.24;102135.47;5006553;28;1720;-69
2021/10/14 03:02:06;;;;;;;;;;;;;;;16.17;72.37;102132.78;5004102;28;1878;-69
2021/10/14 03:04:31;;;;;;;;;;;;;;;16.18;72.25;102129.13;5005994;28;1794;-67
2021/10/14 03:06:56;;;;;;;;;;;;;;;16.16;72.60;102128.38;5005294;28;1617;-68
2021/10/14 03:09:21;;;;;;;;;;;;;;;16.15;72.11;102123.09;5003387;28;1724;-67
2021/10/14 03:11:46;;;;;;;;;;;;;;;16.17;72.65;102118.47;5004901;28;1557;-68
2021/10/14 03:14:11;;;;;;;;;;;;;;;16.15;72.33;102117.72;5004544;28;1648;-69
2021/10/14 03:16:36;;;;;;;;;;;;;;;16.15;72.31;102115.03;5011245;28;1561;-68
2021/10/14 03:19:01;;;;;;;;;;;;;;;16.15;72.31;102120.41;5014515;28;840;-68
2021/10/14 03:21:27;;;;;;;;;;;;;;;16.15;72.31;102117.72;5015355;28;1891;-68
2021/10/14 03:23:52;;;;;;;;;;;;;;;16.15;72.32;102118.56;5015505;28;1141;-69
2021/10/14 03:26:17;;;;;;;;;;;;;;;16.15;72.45;102113.19;5009807;28;1539;-68
2021/10/14 03:28:42;;;;;;;;;;;;;;;16.14;72.19;102127.59;5004504;28;1629;-69
2021/10/14 03:31:07;;;;;;;;;;;;;;;16.14;72.34;102124.91;5006024;28;1530;-70
2021/10/14 03:33:32;;;;;;;;;;;;;;;16.14;71.96;102127.59;5013088;28;1696;-67
2021/10/14 03:35:57;;;;;;;;;;;;;;;16.14;72.47;102118.69;5004908;28;1683;-67
2021/10/14 03:38:22;;;;;;;;;;;;;;;16.14;72.07;102124.06;4995845;28;1057;-67
2021/10/14 03:40:47;;;;;;;;;;;;;;;16.13;72.34;102114.25;5001742;28;1918;-66
2021/10/14 03:43:12;;;;;;;;;;;;;;;16.14;72.31;102114.16;5015752;28;1162;-66
2021/10/14 03:45:37;;;;;;;;;;;;;;;16.13;72.38;102115.13;5015828;28;1550;-65
2021/10/14 03:48:03;;;;;;;;;;;;;;;16.12;72.07;102113.41;5015641;28;787;-66
2021/10/14 03:50:28;;;;;;;;;;;;;;;16.13;72.39;102117.81;5010755;28;1791;-66
2021/10/14 03:52:53;;;;;;;;;;;;;;;16.11;72.30;102098.25;4995906;28;1783;-66
2021/10/14 03:55:18;;;;;;;;;;;;;;;16.11;72.49;102114.41;4995822;28;1567;-65
2021/10/14 03:57:43;;;;;;;;;;;;;;;16.12;72.63;102110.72;4995482;28;841;-66
2021/10/14 04:00:08;;;;;;;;;;;;;;;16.11;72.17;102121.59;4999846;28;1782;-66
2021/10/14 04:02:33;;;;;;;;;;;;;;;16.10;72.54;102122.56;5015219;28;1879;-66
2021/10/14 04:04:58;;;;;;;;;;;;;;;16.10;72.39;102126.13;5014816;28;1753;-66
2021/10/14 04:07:23;;;;;;;;;;;;;;;16.10;72.61;102123.44;5015169;28;926;-66
2021/10/14 04:09:48;;;;;;;;;;;;;;;16.09;72.15;102121.69;5013475;28;1791;-67
2021/10/14 04:12:13;;;;;;;;;;;;;;;16.09;72.22;102124.41;4995669;28;844;-66
2021/10/14 04:14:38;;;;;;;;;;;;;;;16.08;72.34;102124.50;4995410;28;1759;-65
2021/10/14 04:17:03;;;;;;;;;;;;;;;16.09;72.45;102124.41;4998631;28;962;-66
2021/10/14 04:19:29;;;;;;;;;;;;;;;16.08;72.59;102128.03;5000734;28;1845;-67
2021/10/14 04:21:54;;;;;;;;;;;;;;;16.09;72.46;102121.69;5019360;28;1966;-66
2021/10/14 04:24:19;;;;;;;;;;;;;;;16.08;72.20;102122.66;5019048;28;1524;-67
2021/10/14 04:26:44;;;;;;;;;;;;;;;16.07;72.47;102122.78;5018976;28;872;-67
2021/10/14 04:29:09;;;;;;;;;;;;;;;16.07;72.47;102112.88;5019072;28;825;-68
2021/10/14 04:31:34;;;;;;;;;;;;;;;16.08;72.20;102108.34;5010173;28;1820;-67
2021/10/14 04:33:59;;;;;;;;;;;;;;;16.07;72.25;102120.94;5018820;28;825;-67
2021/10/14 04:36:24;;;;;;;;;;;;;;;16.08;72.48;102113.75;5018871;28;1044;-67
2021/10/14 04:38:49;;;;;;;;;;;;;;;16.06;72.61;102105.78;5018939;28;882;-68
2021/10/14 04:41:15;;;;;;;;;;;;;;;16.07;72.41;102112.88;5000278;28;1902;-65
2021/10/14 04:43:40;;;;;;;;;;;;;;;16.07;72.60;102118.25;4998941;28;1665;-65
2021/10/14 04:46:07;;;;;;;;;;;;;;;16.06;72.39;102116.53;4999400;28;808;-65
2021/10/14 04:48:32;;;;;;;;;;;;;;;16.07;72.46;102112.00;4999187;28;827;-65
2021/10/14 04:50:57;;;;;;;;;;;;;;;16.06;72.78;102108.47;5006698;28;1435;-65
2021/10/14 04:53:22;;;;;;;;;;;;;;;16.07;72.28;102112.00;4998963;28;1010;-64
2021/10/14 04:55:47;;;;;;;;;;;;;;;16.06;72.57;102116.53;4998916;28;844;-65
2021/10/14 04:58:12;;;;;;;;;;;;;;;16.05;72.59;102101.34;4998532;28;1002;-67
2021/10/14 05:00:37;;;;;;;;;;;;;;;16.09;72.98;102105.56;4999968;28;1891;-67
2021/10/14 05:03:02;;;;;;;;;;;;;;;16.18;74.72;102102.22;4998606;28;1003;-69
2021/10/14 05:05:27;;;;;;;;;;;;;;;16.28;76.83;102105.19;4998706;28;1014;-69
2021/10/14 05:07:52;;;;;;;;;;;;;;;16.28;77.04;102097.09;5002110;28;1648;-69
2021/10/14 05:10:17;;;;;;;;;;;;;;;16.28;76.85;102114.09;5011104;28;1840;-69
2021/10/14 05:12:42;;;;;;;;;;;;;;;16.27;76.81;102119.59;5017859;28;1240;-69
2021/10/14 05:15:07;;;;;;;;;;;;;;;16.25;76.19;102114.31;5002856;28;1258;-70
2021/10/14 05:17:32;;;;;;;;;;;;;;;16.24;76.24;102115.28;5004931;28;1637;-71
2021/10/14 05:19:58;;;;;;;;;;;;;;;16.23;75.50;102105.47;5004208;28;1471;-72
2021/10/14 05:22:23;;;;;;;;;;;;;;;16.22;75.51;102109.13;5005592;28;1894;-71
2021/10/14 05:24:48;;;;;;;;;;;;;;;16.21;75.33;102102.03;4998024;28;1711;-71
2021/10/14 05:27:13;;;;;;;;;;;;;;;16.21;75.07;102099.34;5023019;28;1776;-71
2021/10/14 05:29:38;;;;;;;;;;;;;;;16.22;75.82;102105.59;5006890;28;1653;-71
2021/10/14 05:32:03;;;;;;;;;;;;;;;16.20;75.06;102108.38;5006573;28;1655;-70
2021/10/14 05:34:28;;;;;;;;;;;;;;;16.19;75.34;102105.78;5005575;28;1624;-71
2021/10/14 05:36:53;;;;;;;;;;;;;;;16.20;74.98;102105.69;5008138;28;1453;-70
2021/10/14 05:39:18;;;;;;;;;;;;;;;16.20;75.11;102102.13;5005559;28;1468;-71
2021/10/14 05:41:43;;;;;;;;;;;;;;;16.18;74.79;102099.53;5011552;28;1973;-71
2021/10/14 05:44:08;;;;;;;;;;;;;;;16.19;74.84;102092.34;5017186;28;858;-70
2021/10/14 05:46:33;;;;;;;;;;;;;;;16.18;74.81;102099.53;5016454;28;1715;-71
2021/10/14 05:48:58;;;;;;;;;;;;;;;16.15;74.63;102090.81;4997823;28;903;-71
2021/10/14 05:51:23;;;;;;;;;;;;;;;16.17;74.41;102099.66;4997820;28;1494;-71
2021/10/14 05:53:49;;;;;;;;;;;;;;;16.15;74.22;102090.81;4997615;28;1045;-71
2021/10/14 05:56:14;;;;;;;;;;;;;;;16.15;74.33;102094.38;4997482;28;930;-70
2021/10/14 05:58:39;;;;;;;;;;;;;;;16.15;74.31;102094.38;5012288;28;1747;-70
2021/10/14 06:01:04;;;;;;;;;;;;;;;16.14;74.35;102097.16;4997443;28;1959;-71
2021/10/14 06:03:29;;;;;;;;;;;;;;;16.14;74.22;102099.84;4997582;28;808;-70
2021/10/14 06:05:54;;;;;;;;;;;;;;;16.14;74.29;102103.41;5012172;28;1720;-69
2021/10/14 06:08:19;;;;;;;;;;;;;;;16.14;73.88;102103.41;4997172;28;1823;-70
2021/10/14 06:10:44;;;;;;;;;;;;;;;16.13;73.94;102101.69;5015405;28;1710;-70
2021/10/14 06:13:09;;;;;;;;;;;;;;;16.11;74.24;102095.56;5014646;28;1280;-70
2021/10/14 06:15:34;;;;;;;;;;;;;;;16.11;73.83;102098.25;4997459;28;1051;-70
2021/10/14 06:17:59;;;;;;;;;;;;;;;16.10;73.90;102091.16;5011525;28;1761;-70
2021/10/14 06:20:24;;;;;;;;;;;;;;;16.11;73.96;102092.88;5016720;28;1726;-70
2021/10/14 06:22:49;;;;;;;;;;;;;;;16.11;73.61;102098.25;5016513;28;1898;-70
2021/10/14 06:25:14;;;;;;;;;;;;;;;16.10;73.81;102091.16;5016762;28;1119;-70
2021/10/14 06:27:40;;;;;;;;;;;;;;;16.10;73.99;102095.69;5004422;28;1790;-70
2021/10/14 06:30:05;;;;;;;;;;;;;;;16.09;73.64;102089.44;5003838;28;1809;-70
2021/10/14 06:32:30;;;;;;;;;;;;;;;16.10;74.11;102090.28;5016591;28;910;-70
2021/10/14 06:34:55;;;;;;;;;;;;;;;16.08;73.86;102085.03;5016452;28;816;-70
2021/10/14 06:37:20;;;;;;;;;;;;;;;16.09;73.34;102088.56;5004732;28;1823;-70
2021/10/14 06:39:45;;;;;;;;;;;;;;;16.08;73.85;102082.34;4996490;28;1699;-70
2021/10/14 06:42:10;;;;;;;;;;;;;;;16.07;73.79;102085.97;4996677;28;1910;-70
2021/10/14 06:44:35;;;;;;;;;;;;;;;16.07;73.93;102080.59;4996354;28;986;-70
2021/10/14 06:47:01;;;;;;;;;;;;;;;16.07;73.69;102085.97;5005486;28;1892;-70
2021/10/14 06:49:26;;;;;;;;;;;;;;;16.07;73.42;102085.97;5016123;28;826;-70
2021/10/14 06:51:53;;;;;;;;;;;;;;;16.07;73.41;102085.97;5016203;28;1001;-70
2021/10/14 06:54:18;;;;;;;;;;;;;;;16.07;73.79;102091.38;5016300;28;849;-69
2021/10/14 06:56:43;;;;;;;;;;;;;;;16.06;73.58;102081.56;5007522;28;1632;-70
2021/10/14 06:59:08;;;;;;;;;;;;;;;16.07;73.39;102079.75;5002703;28;1616;-70
2021/10/14 07:01:34;;;;;;;;;;;;;;;16.04;73.71;102080.81;4999272;28;2037;-70
2021/10/14 07:03:59;;;;;;;;;;;;;;;16.05;73.44;102079.84;5017155;22;2219;-70
2021/10/14 07:06:24;;;;;;;;;;;;;;;16.06;73.48;102084.25;5008179;28;1815;-70
2021/10/14 07:08:49;;;;;;;;;;;;;;;16.08;73.42;102082.34;5006696;28;1789;-71
2021/10/14 07:11:14;;;;;;;;;;;;;;;16.08;73.42;102085.03;5005952;28;1550;-70
2021/10/14 07:13:44;;;;;;;;;;;;;;;16.08;73.56;102076.09;5009354;28;1655;-70
2021/10/14 07:16:09;;;;;;;;;;;;;;;16.10;73.99;102075.03;5015679;28;1836;-70
2021/10/14 07:18:34;;;;;;;;;;;;;;;16.13;73.67;102072.09;5015539;28;949;-70
2021/10/14 07:21:01;;;;;;;;;;;;;;;16.10;73.52;102066.09;5025891;28;1974;-70
2021/10/14 07:23:27;;;;;;;;;;;;;;;16.11;73.41;102070.50;5029627;28;1885;-70
2021/10/14 07:25:53;;;;;;;;;;;;;;;16.10;73.48;102069.66;4996342;28;1919;-70
2021/10/14 07:28:18;;;;;;;;;;;;;;;16.16;74.08;102071.88;4995761;28;804;-70
2021/10/14 07:30:43;;;;;;;;;;;;;;;16.20;75.83;102076.09;4996004;28;887;-70
2021/10/14 07:33:08;;;;;;;;;;;;;;;16.23;76.16;102077.72;4996297;28;1720;-70
2021/10/14 07:35:33;;;;;;;;;;;;;;;16.22;75.96;102082.25;5012719;28;2301;-69
2021/10/14 07:37:58;;;;;;;;;;;;;;;16.22;75.65;102073.31;5014285;28;1909;-69
2021/10/14 07:40:23;;;;;;;;;;;;;;;16.20;75.75;102076.09;5008512;28;1998;-69
2021/10/14 07:42:48;;;;;;;;;;;;;;;16.19;75.64;102079.75;5009378;28;1894;-69
2021/10/14 07:45:13;;;;;;;;;;;;;;;16.20;76.00;102084.16;5014923;28;1880;-69
2021/10/14 07:47:38;;;;;;;;;;;;;;;16.19;75.90;102079.75;5002244;28;2226;-69
2021/10/14 07:50:03;;;;;;;;;;;;;;;16.20;75.61;102077.94;4999949;28;2203;-69
2021/10/14 07:52:28;;;;;;;;;;;;;;;16.19;75.86;102079.75;5014734;28;2194;-69
2021/10/14 07:54:53;;;;;;;;;;;;;;;16.18;75.74;102071.78;5015199;28;2180;-69
2021/10/14 07:57:18;;;;;;;;;;;;;;;16.20;75.64;102076.09;5010444;28;1952;-69
2021/10/14 07:59:44;;;;;;;;;;;;;;;16.20;75.93;102086.84;5012038;28;2288;-68
2021/10/14 08:02:11;;;;;;;;;;;;;;;16.19;75.91;102093.19;5008692;28;2197;-69
2021/10/14 08:04:36;;;;;;;;;;;;;;;16.18;75.33;102088.78;5008273;28;2001;-69
2021/10/14 08:07:01;;;;;;;;;;;;;;;16.18;75.87;102088.78;5029431;28;2087;-69
2021/10/14 08:09:26;;;;;;;;;;;;;;;16.19;75.41;102090.50;5013825;28;1769;-69
2021/10/14 08:11:51;;;;;;;;;;;;;;;16.18;75.60;102096.00;5014709;28;1617;-69
2021/10/14 08:14:16;;;;;;;;;;;;;;;16.18;75.17;102088.78;5005126;28;1984;-69
2021/10/14 08:16:41;;;;;;;;;;;;;;;16.18;75.42;102093.31;5013055;28;1852;-69
2021/10/14 08:19:06;;;;;;;;;;;;;;;16.18;75.33;102094.16;5014258;28;1995;-69
2021/10/14 08:21:31;;;;;;;;;;;;;;;16.18;75.26;102093.31;5014215;28;1903;-69
2021/10/14 08:23:56;;;;;;;;;;;;;;;16.15;75.14;102086.31;5014410;28;1727;-69
2021/10/14 08:26:22;;;;;;;;;;;;;;;16.16;75.20;102084.47;5014244;28;1603;-69
2021/10/14 08:28:47;;;;;;;;;;;;;;;16.17;75.13;102088.88;5014664;28;1720;-68
2021/10/14 08:31:14;;;;;;;;;;;;;;;16.16;75.00;102088.03;5006711;28;1681;-68
2021/10/14 08:33:39;;;;;;;;;;;;;;;16.16;75.00;102079.09;5008022;28;2660;-69
2021/10/14 08:36:04;;;;;;;;;;;;;;;16.16;74.84;102088.03;5012391;28;1922;-68
2021/10/14 08:38:29;;;;;;;;;;;;;;;16.15;75.03;102083.63;5014992;28;2020;-69
2021/10/14 08:40:54;;;;;;;;;;;;;;;16.15;74.92;102083.63;5011898;28;2117;-69
2021/10/14 08:43:19;;;;;;;;;;;;;;;16.17;74.78;102089.75;5006810;28;1922;-68
2021/10/14 08:45:45;;;;;;;;;;;;;;;16.16;74.47;102082.66;5001283;28;2116;-69
2021/10/14 08:48:10;;;;;;;;;;;;;;;16.15;74.73;102086.31;5009177;28;1790;-69
2021/10/14 08:50:35;;;;;;;;;;;;;;;16.15;74.73;102089.00;5001728;28;1767;-69
2021/10/14 08:53:00;;;;;;;;;;;;;;;16.14;74.76;102081.88;5012456;28;1919;-69
2021/10/14 08:55:27;;;;;;;;;;;;;;;16.15;74.87;102078.22;5014858;28;1793;-69
2021/10/14 08:57:52;;;;;;;;;;;;;;;16.15;74.53;102066.63;5014703;28;1918;-69
2021/10/14 09:00:17;;;;;;;;;;;;;;;16.15;74.39;102075.53;5010433;28;1918;-69
2021/10/14 09:02:42;;;;;;;;;;;;;;;16.14;74.73;102068.44;5012480;28;1902;-70
2021/10/14 09:05:10;;;;;;;;;;;;;;;16.14;74.67;102071.13;5017775;28;2090;-69
2021/10/14 09:07:35;;;;;;;;;;;;;;;16.15;74.29;102072.00;5022806;28;2046;-69
2021/10/14 09:10:01;;;;;;;;;;;;;;;16.15;74.45;102075.53;5027292;28;1765;-69
2021/10/14 09:12:26;;;;;;;;;;;;;;;16.15;74.45;102072.84;5013324;28;2062;-69
2021/10/14 09:14:51;;;;;;;;;;;;;;;16.15;74.58;102072.84;5030335;28;1885;-69
2021/10/14 09:17:16;;;;;;;;;;;;;;;16.15;74.12;102070.16;5007285;28;1777;-69
2021/10/14 09:19:41;;;;;;;;;;;;;;;16.15;74.31;102067.47;5017309;28;1828;-69
2021/10/14 09:22:06;;;;;;;;;;;;;;;16.13;74.28;102072.09;5013708;28;1914;-69
2021/10/14 09:24:31;;;;;;;;;;;;;;;16.16;74.27;102074.59;5016414;28;1735;-69
2021/10/14 09:26:56;;;;;;;;;;;;;;;16.17;74.15;102065.53;5009334;28;1590;-69
2021/10/14 09:29:22;;;;;;;;;;;;;;;16.17;74.20;102065.53;5014713;28;1989;-69
2021/10/14 09:31:47;;;;;;;;;;;;;;;16.17;74.00;102070.06;4999579;28;1870;-69
2021/10/14 09:34:12;;;;;;;;;;;;;;;16.17;74.24;102067.38;4998322;28;807;-69
2021/10/14 09:36:38;;;;;;;;;;;;;;;16.19;74.23;102069.00;5000764;28;1610;-69
2021/10/14 09:39:03;;;;;;;;;;;;;;;16.20;73.92;102075.25;5017296;28;807;-69
2021/10/14 09:41:28;;;;;;;;;;;;;;;16.20;73.85;102068.03;5017101;28;1914;-69
2021/10/14 09:43:53;;;;;;;;;;;;;;;16.20;73.89;102062.66;5007490;28;1846;-69
2021/10/14 09:46:18;;;;;;;;;;;;;;;16.23;73.93;102065.13;5008304;28;1596;-69
2021/10/14 09:48:43;;;;;;;;;;;;;;;16.21;74.15;102058.13;5015320;28;1755;-69
2021/10/14 09:53:39;;;;;;;;;;;;;;;16.20;73.92;102070.72;4905214;22;12073;-68
2021/10/14 09:56:05;;;;;;;;;;;;;;;16.21;73.86;102066.19;5008179;28;2410;-69
2021/10/14 09:58:30;;;;;;;;;;;;;;;16.21;73.83;102067.06;5009648;28;1479;-70
2021/10/14 10:00:56;;;;;;;;;;;;;;;16.19;73.70;102063.63;5007918;28;1910;-69
2021/10/14 10:03:21;;;;;;;;;;;;;;;16.19;74.11;102058.25;5008293;28;1589;-69
2021/10/14 10:05:46;;;;;;;;;;;;;;;16.19;73.68;102055.56;4144397;28;10000871;-69
2021/10/14 10:08:13;;;;;;;;;;;;;;;16.18;73.30;102053.81;5023645;28;1558;-69
2021/10/14 10:10:38;;;;;;;;;;;;;;;16.21;73.77;102045.53;5031858;28;1490;-69
2021/10/14 10:13:03;;;;;;;;;;;;;;;16.24;73.55;102050.72;5033212;28;1727;-69
2021/10/14 10:15:28;;;;;;;;;;;;;;;16.25;73.47;102040.81;5029939;28;1986;-69
2021/10/14 10:17:53;;;;;;;;;;;;;;;16.28;73.38;102046.84;5030813;28;1573;-69
2021/10/14 10:20:18;;;;;;;;;;;;;;;16.28;73.42;102052.25;5035332;28;1520;-69
2021/10/14 10:22:43;;;;;;;;;;;;;;;16.25;73.36;102047.06;5027080;28;1906;-69
2021/10/14 10:25:08;;;;;;;;;;;;;;;16.25;73.46;102041.69;5030122;28;1483;-69
2021/10/14 10:27:33;;;;;;;;;;;;;;;16.25;73.09;102039.00;5035004;28;1295;-69
2021/10/14 10:29:59;;;;;;;;;;;;;;;16.25;73.36;102046.19;5034140;28;1519;-69
2021/10/14 10:32:24;;;;;;;;;;;;;;;16.25;73.34;102040.81;5036144;28;1116;-70
2021/10/14 10:34:53;;;;;;;;;;;;;;;16.22;73.21;102036.50;5034258;28;1430;-70
2021/10/14 10:37:20;;;;;;;;;;;;;;;16.23;73.47;102029.31;5031765;28;1558;-70
2021/10/14 10:39:45;;;;;;;;;;;;;;;16.23;73.22;102040.94;5029898;28;1847;-70
2021/10/14 10:42:10;;;;;;;;;;;;;;;16.23;73.15;102027.47;5033726;28;1882;-70
2021/10/14 10:44:35;;;;;;;;;;;;;;;16.25;73.10;102030.06;5031314;28;1862;-70
2021/10/14 10:47:00;;;;;;;;;;;;;;;16.25;72.89;102033.63;5033597;28;1646;-70
2021/10/14 10:49:25;;;;;;;;;;;;;;;16.24;73.04;102029.19;5034075;28;1671;-68
2021/10/14 10:51:50;;;;;;;;;;;;;;;16.24;72.90;102023.81;5030660;28;1749;-69
2021/10/14 10:54:15;;;;;;;;;;;;;;;16.23;73.03;102024.78;5029632;28;1992;-70
2021/10/14 10:56:42;;;;;;;;;;;;;;;16.24;72.83;102029.19;5035142;28;1657;-70
2021/10/14 10:59:08;;;;;;;;;;;;;;;16.24;72.78;102018.44;5031452;28;1638;-70
2021/10/14 11:01:34;;;;;;;;;;;;;;;16.25;72.97;102020.16;5017200;28;1903;-70
2021/10/14 11:04:00;;;;;;;;;;;;;;;16.26;72.92;102016.50;5015641;28;926;-70
2021/10/14 11:06:25;;;;;;;;;;;;;;;16.25;72.95;102022.84;5033276;28;1737;-70
2021/10/14 11:08:50;;;;;;;;;;;;;;;16.27;72.75;102025.44;5019399;28;1776;-70
2021/10/14 11:11:17;;;;;;;;;;;;;;;16.25;72.42;102019.31;5014606;28;811;-70
2021/10/14 11:21:30;;;;;;;;;;;;;;;16.26;72.46;102005.75;5453161;22;2197;-58
2021/10/14 11:23:56;;;;;;;;;;;;;;;16.27;72.49;102012.84;5050836;28;2276;-58
2021/10/14 11:26:23;;;;;;;;;;;;;;;16.28;72.43;102011.88;5043946;28;13134;-55
2021/10/14 11:28:49;;;;;;;;;;;;;;;16.33;72.45;102008.84;5054199;28;2190;-68
2021/10/14 11:31:14;;;;;;;;;;;;;;;16.33;72.24;102008.84;5054451;28;1503;-71
2021/10/14 11:33:39;;;;;;;;;;;;;;;16.32;72.45;102009.81;5055042;28;1766;-71
2021/10/14 11:38:48;;;;;;;;;;;;;;;16.32;72.27;101999.91;5050143;28;1591;-71
2021/10/14 11:41:13;;;;;;;;;;;;;;;16.33;72.38;101996.25;5054948;28;1910;-71
2021/10/14 11:43:38;;;;;;;;;;;;;;;16.36;72.35;101994.31;5054570;28;2027;-71
2021/10/14 11:46:03;;;;;;;;;;;;;;;16.37;72.08;101998.75;5053670;28;2151;-71
2021/10/14 11:48:29;;;;;;;;;;;;;;;16.37;71.95;101987.97;5037910;28;2227;-71
2021/10/14 11:50:54;;;;;;;;;;;;;;;16.39;71.88;101984.22;5043752;28;1558;-71
2021/10/14 11:53:19;;;;;;;;;;;;;;;16.41;71.65;101982.28;5055071;28;1794;-62
2021/10/14 11:55:44;;;;;;;;;;;;;;;16.45;71.80;101982.94;5054845;28;1112;-72
2021/10/14 11:58:09;;;;;;;;;;;;;;;16.50;71.60;101981.59;5053005;28;1518;-72
2021/10/14 12:00:34;;;;;;;;;;;;;;;16.53;71.71;101976.00;5052454;28;1592;-71
2021/10/14 12:02:59;;;;;;;;;;;;;;;16.56;71.77;101980.31;5041014;28;2573;-73
2021/10/14 12:05:24;;;;;;;;;;;;;;;16.56;71.42;101977.63;5054855;28;1020;-71
2021/10/14 12:07:49;;;;;;;;;;;;;;;16.57;71.11;101976.66;5055142;28;837;-71
2021/10/14 12:10:15;;;;;;;;;;;;;;;16.56;71.79;101964.16;5054914;28;822;-72
2021/10/14 12:12:40;;;;;;;;;;;;;;;16.54;71.65;101969.66;5054387;28;1658;-71
2021/10/14 12:15:05;;;;;;;;;;;;;;;16.56;71.34;101956.09;5054401;28;1020;-71
2021/10/14 12:17:32;;;;;;;;;;;;;;;16.58;71.29;101954.16;5054508;28;933;-72
2021/10/14 12:19:57;;;;;;;;;;;;;;;16.59;71.34;101959.44;5053164;28;1572;-73
2021/10/14 12:22:22;;;;;;;;;;;;;;;16.60;71.41;101952.22;5034628;28;1922;-72
2021/10/14 12:24:47;;;;;;;;;;;;;;;16.59;71.60;101959.44;5030871;28;1661;-71
2021/10/14 12:27:12;;;;;;;;;;;;;;;16.61;71.28;101954.81;5034253;28;1342;-72
2021/10/14 12:29:37;;;;;;;;;;;;;;;16.62;71.51;101955.66;5034759;28;1378;-72
2021/10/14 12:32:02;;;;;;;;;;;;;;;16.60;71.42;101945.00;5033752;28;1004;-72
2021/10/14 12:34:27;;;;;;;;;;;;;;;16.62;71.39;101944.91;5033639;28;1838;-71
2021/10/14 12:36:52;;;;;;;;;;;;;;;16.64;71.04;101941.16;5034639;28;1744;-72
2021/10/14 12:39:17;;;;;;;;;;;;;;;16.66;71.18;101931.09;5037895;28;1643;-72
2021/10/14 12:41:42;;;;;;;;;;;;;;;16.67;70.93;101946.28;5037686;28;1959;-72
2021/10/14 12:44:08;;;;;;;;;;;;;;;16.67;71.16;101929.28;5038142;28;1635;-72
2021/10/14 12:46:43;;;;;;;;;;;;;;;16.70;71.11;101925.50;5038655;28;1528;-72
2021/10/14 12:50:01;;;;;;;;;;;;;;;16.68;71.26;101928.31;5038400;28;1530;-71